createdAt,value
2023-03-16T00:00:33.383Z,12.93
2023-03-16T00:02:59.930Z,12.73
2023-03-16T00:05:26.453Z,12.23
2023-03-16T00:07:53.099Z,12.67
2023-03-16T00:10:19.797Z,12.90
2023-03-16T00:12:46.366Z,14.33
2023-03-16T00:15:13.214Z,12.30
2023-03-16T00:17:39.744Z,13.83
2023-03-16T00:20:07.286Z,13.20
2023-03-16T00:22:34.063Z,13.10
2023-03-16T00:25:00.641Z,12.27
2023-03-16T00:27:27.171Z,13.63
2023-03-16T00:29:56.267Z,12.07
2023-03-16T00:32:24.721Z,14.80
2023-03-16T00:34:51.756Z,14.80
2023-03-16T00:37:18.592Z,13.93
2023-03-16T00:39:46.038Z,14.53
2023-03-16T00:42:13.038Z,16.03
2023-03-16T00:44:39.684Z,17.60
2023-03-16T00:47:09.181Z,16.87
2023-03-16T00:49:36.149Z,17.07
2023-03-16T00:52:02.969Z,15.17
2023-03-16T00:54:29.764Z,13.63
2023-03-16T00:56:56.248Z,13.17
2023-03-16T00:59:22.815Z,14.13
2023-03-16T01:01:49.310Z,13.87
2023-03-16T01:04:15.797Z,14.60
2023-03-16T01:06:42.360Z,14.23
2023-03-16T01:09:09.771Z,13.90
2023-03-16T01:11:36.440Z,15.20
2023-03-16T01:14:03.834Z,13.87
2023-03-16T01:16:30.425Z,13.53
2023-03-16T01:18:57.719Z,13.53
2023-03-16T01:21:24.254Z,14.70
2023-03-16T01:23:50.821Z,14.60
2023-03-16T01:26:18.788Z,14.37
2023-03-16T01:28:45.375Z,15.40
2023-03-16T01:31:12.445Z,15.90
2023-03-16T01:33:39.029Z,15.23
2023-03-16T01:36:06.786Z,15.20
2023-03-16T01:38:33.763Z,15.33
2023-03-16T01:41:00.458Z,15.47
2023-03-16T01:43:27.668Z,14.90
2023-03-16T01:45:54.279Z,16.37
2023-03-16T01:48:24.137Z,15.50
2023-03-16T01:50:52.616Z,15.37
2023-03-16T01:53:19.533Z,15.70
2023-03-16T01:55:46.136Z,15.40
2023-03-16T01:58:14.659Z,16.57
2023-03-16T02:00:42.078Z,17.47
2023-03-16T02:03:10.591Z,15.47
2023-03-16T02:05:49.067Z,17.77
2023-03-16T02:08:15.566Z,22.90
2023-03-16T02:10:42.082Z,24.00
2023-03-16T02:13:08.844Z,24.77
2023-03-16T02:15:36.239Z,24.57
2023-03-16T02:18:02.888Z,24.17
2023-03-16T02:20:37.702Z,25.00
2023-03-16T02:23:04.969Z,23.33
2023-03-16T02:25:44.265Z,24.13
2023-03-16T02:28:12.595Z,22.90
2023-03-16T02:30:39.094Z,22.07
2023-03-16T02:33:06.321Z,20.40
2023-03-16T02:35:33.290Z,23.70
2023-03-16T02:37:59.996Z,23.07
2023-03-16T02:40:27.471Z,23.77
2023-03-16T02:43:04.531Z,22.53
2023-03-16T02:45:47.140Z,23.73
2023-03-16T02:48:15.134Z,24.07
2023-03-16T02:50:46.996Z,27.00
2023-03-16T02:53:13.907Z,25.20
2023-03-16T02:55:40.460Z,25.00
2023-03-16T02:58:07.251Z,23.83
2023-03-16T03:00:33.749Z,23.47
2023-03-16T03:03:00.255Z,23.20
2023-03-16T03:05:26.793Z,24.77
2023-03-16T03:07:53.317Z,24.20
2023-03-16T03:10:20.033Z,23.73
2023-03-16T03:12:49.495Z,22.80
2023-03-16T03:15:16.639Z,24.03
2023-03-16T03:17:43.181Z,22.13
2023-03-16T03:20:19.961Z,23.00
2023-03-16T03:22:47.222Z,24.30
2023-03-16T03:25:14.339Z,22.03
2023-03-16T03:27:42.876Z,22.57
2023-03-16T03:30:10.524Z,21.90
2023-03-16T03:32:37.047Z,22.57
2023-03-16T03:35:03.790Z,21.83
2023-03-16T03:37:30.367Z,21.53
2023-03-16T03:39:56.861Z,21.87
2023-03-16T03:42:26.419Z,22.53
2023-03-16T03:44:53.007Z,22.63
2023-03-16T03:47:19.684Z,22.50
2023-03-16T03:49:46.246Z,23.80
2023-03-16T03:52:12.771Z,23.70
2023-03-16T03:54:39.261Z,25.40
2023-03-16T03:57:05.831Z,25.27
2023-03-16T03:59:32.330Z,25.10
2023-03-16T04:01:58.895Z,26.43
2023-03-16T04:04:25.418Z,26.93
2023-03-16T04:06:51.908Z,27.47
2023-03-16T04:09:18.402Z,27.30
2023-03-16T04:11:44.948Z,26.17
2023-03-16T04:14:11.481Z,27.17
2023-03-16T04:16:38.045Z,25.33
2023-03-16T04:19:04.574Z,24.83
2023-03-16T04:21:31.320Z,25.20
2023-03-16T04:23:57.831Z,24.20
2023-03-16T04:26:25.765Z,23.67
2023-03-16T04:28:52.920Z,23.43
2023-03-16T04:31:19.503Z,22.90
2023-03-16T04:33:46.064Z,22.43
2023-03-16T04:36:12.629Z,21.87
2023-03-16T04:38:39.147Z,26.40
2023-03-16T04:41:06.399Z,26.73
2023-03-16T04:43:34.584Z,29.50
2023-03-16T04:46:01.740Z,36.73
2023-03-16T04:48:28.878Z,34.73
2023-03-16T04:50:55.395Z,33.37
2023-03-16T04:53:21.888Z,31.67
2023-03-16T04:55:48.376Z,29.63
2023-03-16T04:58:14.946Z,31.33
2023-03-16T05:00:41.708Z,30.77
2023-03-16T05:03:10.278Z,28.90
2023-03-16T05:05:39.908Z,27.27
2023-03-16T05:08:06.808Z,31.20
2023-03-16T05:10:33.526Z,29.17
2023-03-16T05:13:00.103Z,30.03
2023-03-16T05:15:26.678Z,28.93
2023-03-16T05:17:54.328Z,32.03
2023-03-16T05:20:22.031Z,30.93
2023-03-16T05:22:48.535Z,34.07
2023-03-16T05:25:15.622Z,32.97
2023-03-16T05:27:45.744Z,33.90
2023-03-16T05:30:12.374Z,35.10
2023-03-16T05:32:38.985Z,37.33
2023-03-16T05:35:05.819Z,35.87
2023-03-16T05:37:32.362Z,33.33
2023-03-16T05:39:58.957Z,36.30
2023-03-16T05:42:27.151Z,33.23
2023-03-16T05:44:54.018Z,34.53
2023-03-16T05:47:20.946Z,32.83
2023-03-16T05:49:47.492Z,33.77
2023-03-16T05:52:13.988Z,30.73
2023-03-16T05:54:40.553Z,29.17
2023-03-16T05:57:07.180Z,29.90
2023-03-16T05:59:33.848Z,29.53
2023-03-16T06:02:00.347Z,29.17
2023-03-16T06:04:27.309Z,30.03
2023-03-16T06:06:54.050Z,30.80
2023-03-16T06:09:20.766Z,29.07
2023-03-16T06:11:47.272Z,29.97
2023-03-16T06:14:13.777Z,31.43
2023-03-16T06:16:40.405Z,31.23
2023-03-16T06:19:06.923Z,30.97
2023-03-16T06:21:33.903Z,29.43
2023-03-16T06:24:00.591Z,29.23
2023-03-16T06:26:27.323Z,29.37
2023-03-16T06:28:53.933Z,29.67
2023-03-16T06:31:20.780Z,30.43
2023-03-16T06:33:47.336Z,30.80
2023-03-16T06:36:15.087Z,29.63
2023-03-16T06:38:41.734Z,29.63
2023-03-16T06:41:08.286Z,29.27
2023-03-16T06:43:34.780Z,27.50
2023-03-16T06:46:01.851Z,28.80
2023-03-16T06:48:28.380Z,28.43
2023-03-16T06:50:55.080Z,29.40
2023-03-16T06:53:22.233Z,31.67
2023-03-16T06:55:48.783Z,31.33
2023-03-16T06:58:16.151Z,29.93
2023-03-16T07:00:42.962Z,29.73
2023-03-16T07:03:09.525Z,29.00
2023-03-16T07:05:36.047Z,29.27
2023-03-16T07:08:02.606Z,30.33
2023-03-16T07:10:29.507Z,29.60
2023-03-16T07:12:56.457Z,28.33
2023-03-16T07:15:25.655Z,24.77
2023-03-16T07:17:52.710Z,20.97
2023-03-16T07:20:19.589Z,21.50
2023-03-16T07:22:46.659Z,20.80
2023-03-16T07:25:14.053Z,21.17
2023-03-16T07:27:41.462Z,22.17
2023-03-16T07:30:08.663Z,23.20
2023-03-16T07:32:35.205Z,21.77
2023-03-16T07:35:02.245Z,21.97
2023-03-16T07:37:28.727Z,22.17
2023-03-16T07:39:55.264Z,22.43
2023-03-16T07:42:22.844Z,22.37
2023-03-16T07:44:51.701Z,21.27
2023-03-16T07:47:18.499Z,21.03
2023-03-16T07:49:45.129Z,22.43
2023-03-16T07:52:13.817Z,20.90
2023-03-16T07:54:41.025Z,22.67
2023-03-16T07:57:07.810Z,23.27
2023-03-16T07:59:34.330Z,24.13
2023-03-16T08:02:00.842Z,22.13
2023-03-16T08:04:27.450Z,23.70
2023-03-16T08:07:00.239Z,22.17
2023-03-16T08:09:27.212Z,21.60
2023-03-16T08:11:53.842Z,22.43
2023-03-16T08:14:20.378Z,20.73
2023-03-16T08:16:47.330Z,22.20
2023-03-16T08:19:13.865Z,21.57
2023-03-16T08:21:58.294Z,20.93
2023-03-16T08:24:28.093Z,19.90
2023-03-16T08:26:54.666Z,19.80
2023-03-16T08:29:21.281Z,19.47
2023-03-16T08:31:47.984Z,17.63
2023-03-16T08:34:16.161Z,17.20
2023-03-16T08:36:43.957Z,17.53
2023-03-16T08:39:11.919Z,16.60
2023-03-16T08:41:40.707Z,18.70
2023-03-16T08:44:07.985Z,17.37
2023-03-16T08:46:34.596Z,16.83
2023-03-16T08:49:01.367Z,15.37
2023-03-16T08:51:29.615Z,15.03
2023-03-16T08:53:56.247Z,14.67
2023-03-16T08:56:22.919Z,14.10
2023-03-16T08:58:50.609Z,13.83
2023-03-16T09:01:19.300Z,14.57
2023-03-16T09:03:46.458Z,13.60
2023-03-16T09:06:13.993Z,11.83
2023-03-16T09:08:40.802Z,12.67
2023-03-16T09:11:11.189Z,12.47
2023-03-16T09:13:38.657Z,11.27
2023-03-16T09:16:05.928Z,10.63
2023-03-16T09:18:32.867Z,8.27
2023-03-16T09:21:00.213Z,7.97
2023-03-16T09:23:27.840Z,6.67
2023-03-16T09:25:56.416Z,6.80
2023-03-16T09:28:23.004Z,8.37
2023-03-16T09:30:50.646Z,7.93
2023-03-16T09:33:17.162Z,6.50
2023-03-16T09:35:45.214Z,4.17
2023-03-16T09:38:11.748Z,4.00
2023-03-16T09:40:39.243Z,6.60
2023-03-16T09:43:25.036Z,5.47
2023-03-16T09:46:05.692Z,6.63
2023-03-16T09:48:32.989Z,5.00
2023-03-16T09:51:00.047Z,5.23
2023-03-16T09:53:31.062Z,6.20
2023-03-16T09:56:02.050Z,5.67
2023-03-16T09:58:28.587Z,6.50
2023-03-16T10:00:55.137Z,4.53
2023-03-16T10:03:24.796Z,5.13
2023-03-16T10:05:56.132Z,4.83
2023-03-16T10:08:32.202Z,4.47
2023-03-16T10:11:04.774Z,3.20
2023-03-16T10:13:49.781Z,3.33
2023-03-16T10:16:27.832Z,3.07
2023-03-16T10:19:00.185Z,3.93
2023-03-16T10:21:27.392Z,3.47
2023-03-16T10:23:54.161Z,3.20
2023-03-16T10:26:28.696Z,3.83
2023-03-16T10:28:55.143Z,3.97
2023-03-16T10:31:23.150Z,4.13
2023-03-16T10:33:51.037Z,3.73
2023-03-16T10:36:31.235Z,3.33
2023-03-16T10:38:58.961Z,3.47
2023-03-16T10:41:26.128Z,3.23
2023-03-16T10:43:52.711Z,4.33
2023-03-16T10:46:19.427Z,3.60
2023-03-16T10:49:01.881Z,2.97
2023-03-16T10:51:29.837Z,3.00
2023-03-16T10:54:05.004Z,2.53
2023-03-16T10:56:33.031Z,2.80
2023-03-16T10:59:00.574Z,2.53
2023-03-16T11:01:28.307Z,2.27
2023-03-16T11:03:55.759Z,2.30
2023-03-16T11:06:24.930Z,1.97
2023-03-16T11:08:52.950Z,1.53
2023-03-16T11:11:32.660Z,1.93
2023-03-16T11:13:59.724Z,1.87
2023-03-16T11:16:47.055Z,1.97
2023-03-16T11:19:16.583Z,2.37
2023-03-16T11:21:43.124Z,1.97
2023-03-16T11:24:12.233Z,2.10
2023-03-16T11:26:39.551Z,1.70
2023-03-16T11:29:26.358Z,1.93
2023-03-16T11:32:20.521Z,2.20
2023-03-16T11:34:48.904Z,2.00
2023-03-16T11:37:42.671Z,1.77
2023-03-16T11:40:29.144Z,1.77
2023-03-16T11:43:06.525Z,1.80
2023-03-16T11:45:36.250Z,1.57
2023-03-16T11:48:04.638Z,1.57
2023-03-16T11:50:49.921Z,1.10
2023-03-16T11:53:22.899Z,1.40
2023-03-16T11:56:08.155Z,1.60
2023-03-16T11:58:51.334Z,1.23
2023-03-16T12:01:18.438Z,1.70
2023-03-16T12:03:50.300Z,1.53
2023-03-16T12:06:24.440Z,1.60
2023-03-16T12:09:16.379Z,1.70
2023-03-16T12:11:46.000Z,1.50
2023-03-16T12:14:12.555Z,1.77
2023-03-16T12:16:49.382Z,1.60
2023-03-16T12:19:18.696Z,1.30
2023-03-16T12:21:46.164Z,1.07
2023-03-16T12:24:16.059Z,1.07
2023-03-16T12:26:42.753Z,1.77
2023-03-16T12:29:19.548Z,1.47
2023-03-16T12:31:50.875Z,1.77
2023-03-16T12:34:41.336Z,1.50
2023-03-16T12:37:18.384Z,1.60
2023-03-16T12:39:45.879Z,1.30
2023-03-16T12:42:33.677Z,2.40
2023-03-16T12:45:01.057Z,1.20
2023-03-16T12:47:31.415Z,1.00
2023-03-16T12:50:08.323Z,1.00
2023-03-16T12:52:51.362Z,0.90
2023-03-16T12:55:17.922Z,1.40
2023-03-16T12:57:44.869Z,3.57
2023-03-16T13:00:11.925Z,1.80
2023-03-16T13:02:39.097Z,2.90
2023-03-16T13:05:10.197Z,1.70
2023-03-16T13:07:37.786Z,1.70
2023-03-16T13:10:08.967Z,1.30
2023-03-16T13:12:37.249Z,2.17
2023-03-16T13:15:37.078Z,1.73
2023-03-16T13:18:03.635Z,3.57
2023-03-16T13:20:32.384Z,3.57
2023-03-16T13:23:08.333Z,2.73
2023-03-16T13:25:36.900Z,5.03
2023-03-16T13:28:06.162Z,3.60
2023-03-16T13:30:33.558Z,7.37
2023-03-16T13:33:12.384Z,3.50
2023-03-16T13:35:41.108Z,2.20
2023-03-16T13:38:13.372Z,1.93
2023-03-16T13:40:46.012Z,2.20
2023-03-16T13:43:14.788Z,1.63
2023-03-16T13:45:41.663Z,1.37
2023-03-16T13:48:11.806Z,1.00
2023-03-16T13:50:41.279Z,1.50
2023-03-16T13:53:15.679Z,1.13
2023-03-16T13:55:43.772Z,1.70
2023-03-16T13:58:20.662Z,1.00
2023-03-16T14:00:47.505Z,1.00
2023-03-16T14:03:16.339Z,1.20
2023-03-16T14:05:42.994Z,1.87
2023-03-16T14:08:16.888Z,1.40
2023-03-16T14:10:43.882Z,1.67
2023-03-16T14:13:22.248Z,1.40
2023-03-16T14:15:48.853Z,2.03
2023-03-16T14:18:16.796Z,1.20
2023-03-16T14:20:43.780Z,1.23
2023-03-16T14:23:40.028Z,1.80
2023-03-16T14:26:06.900Z,2.10
2023-03-16T14:28:33.671Z,2.10
2023-03-16T14:31:07.506Z,1.80
2023-03-16T14:33:34.720Z,2.27
2023-03-16T14:36:07.736Z,2.00
2023-03-16T14:38:38.272Z,2.10
2023-03-16T14:41:14.074Z,1.73
2023-03-16T14:43:44.977Z,1.73
2023-03-16T14:46:11.700Z,2.03
2023-03-16T14:48:38.315Z,1.67
2023-03-16T14:51:04.909Z,1.20
2023-03-16T14:53:31.890Z,1.40
2023-03-16T14:55:59.837Z,1.10
2023-03-16T14:58:26.709Z,1.47
2023-03-16T15:00:53.897Z,1.57
2023-03-16T15:03:21.520Z,1.37
2023-03-16T15:05:48.694Z,1.50
2023-03-16T15:08:33.891Z,1.40
2023-03-16T15:11:05.878Z,1.20
2023-03-16T15:13:52.887Z,1.67
2023-03-16T15:16:20.404Z,1.90
2023-03-16T15:18:47.824Z,1.70
2023-03-16T15:21:18.288Z,1.20
2023-03-16T15:23:45.025Z,1.97
2023-03-16T15:26:12.129Z,1.77
2023-03-16T15:28:38.850Z,1.73
2023-03-16T15:31:05.435Z,2.63
2023-03-16T15:33:32.025Z,3.17
2023-03-16T15:35:59.079Z,2.53
2023-03-16T15:38:26.833Z,2.37
2023-03-16T15:40:53.541Z,2.00
2023-03-16T15:43:20.887Z,1.80
2023-03-16T15:45:47.906Z,2.10
2023-03-16T15:48:14.638Z,1.83
2023-03-16T15:50:42.060Z,1.97
2023-03-16T15:53:13.231Z,1.67
2023-03-16T15:55:44.989Z,1.50
2023-03-16T15:58:15.367Z,1.90
2023-03-16T16:00:42.076Z,1.27
2023-03-16T16:03:10.114Z,1.40
2023-03-16T16:05:36.690Z,1.87
2023-03-16T16:08:03.818Z,2.30
2023-03-16T16:10:31.021Z,1.33
2023-03-16T16:12:57.934Z,1.30
2023-03-16T16:15:29.829Z,1.40
2023-03-16T16:18:19.837Z,1.67
2023-03-16T16:20:44.358Z,1.67
2023-03-16T16:23:11.045Z,2.17
2023-03-16T16:25:39.243Z,6.77
2023-03-16T16:28:11.636Z,3.70
2023-03-16T16:30:39.958Z,3.27
2023-03-16T16:33:27.127Z,2.57
2023-03-16T16:35:54.243Z,2.53
2023-03-16T16:38:21.148Z,2.70
2023-03-16T16:40:47.778Z,3.10
2023-03-16T16:43:26.643Z,2.77
2023-03-16T16:45:53.848Z,4.10
2023-03-16T16:48:27.139Z,5.20
2023-03-16T16:50:53.693Z,4.67
2023-03-16T16:53:23.647Z,5.53
2023-03-16T16:55:50.296Z,3.87
2023-03-16T16:58:24.282Z,4.10
2023-03-16T17:00:58.149Z,3.40
2023-03-16T17:03:28.459Z,4.10
2023-03-16T17:05:56.145Z,4.27
2023-03-16T17:08:23.739Z,3.40
2023-03-16T17:10:51.862Z,3.10
2023-03-16T17:13:28.276Z,3.67
2023-03-16T17:15:55.110Z,5.00
2023-03-16T17:18:22.175Z,8.03
2023-03-16T17:20:49.678Z,11.90
2023-03-16T17:23:33.281Z,17.13
2023-03-16T17:26:01.854Z,21.73
2023-03-16T17:28:28.432Z,23.67
2023-03-16T17:30:55.123Z,33.63
2023-03-16T17:33:21.721Z,24.40
2023-03-16T17:35:48.383Z,19.80
2023-03-16T17:38:24.448Z,16.60
2023-03-16T17:40:51.244Z,18.47
2023-03-16T17:43:21.519Z,23.77
2023-03-16T17:45:48.627Z,28.90
2023-03-16T17:48:16.699Z,47.37
2023-03-16T17:50:46.832Z,24.00
2023-03-16T17:53:16.992Z,13.10
2023-03-16T17:55:43.884Z,20.23
2023-03-16T17:58:29.684Z,57.20
2023-03-16T18:00:56.533Z,73.43
2023-03-16T18:03:24.467Z,55.80
2023-03-16T18:05:51.084Z,50.50
2023-03-16T18:08:20.641Z,39.20
2023-03-16T18:10:47.994Z,30.83
2023-03-16T18:13:24.632Z,32.03
2023-03-16T18:15:52.140Z,30.33
2023-03-16T18:18:21.471Z,31.30
2023-03-16T18:20:48.726Z,31.03
2023-03-16T18:23:15.451Z,23.43
2023-03-16T18:25:42.270Z,23.30
2023-03-16T18:28:09.950Z,21.47
2023-03-16T18:30:37.765Z,20.97
2023-03-16T18:33:05.362Z,20.97
2023-03-16T18:35:33.634Z,20.53
2023-03-16T18:38:00.728Z,26.63
2023-03-16T18:40:29.446Z,35.13
2023-03-16T18:42:56.612Z,35.80
2023-03-16T18:45:23.361Z,34.33
2023-03-16T18:47:53.608Z,31.23
2023-03-16T18:50:24.642Z,29.87
2023-03-16T18:52:51.792Z,25.83
2023-03-16T18:55:19.689Z,23.83
2023-03-16T18:57:51.644Z,23.10
2023-03-16T19:00:21.853Z,21.53
2023-03-16T19:02:49.701Z,21.80
2023-03-16T19:05:16.838Z,22.23
2023-03-16T19:07:44.727Z,21.43
2023-03-16T19:10:22.387Z,21.20
2023-03-16T19:12:49.370Z,22.80
2023-03-16T19:15:21.059Z,23.10
2023-03-16T19:17:47.903Z,23.57
2023-03-16T19:20:15.863Z,21.97
2023-03-16T19:22:44.065Z,20.73
2023-03-16T19:25:17.655Z,22.90
2023-03-16T19:27:44.508Z,22.83
2023-03-16T19:30:24.792Z,33.70
2023-03-16T19:32:51.713Z,39.33
2023-03-16T19:35:18.825Z,34.70
2023-03-16T19:37:45.962Z,35.77
2023-03-16T19:40:12.809Z,27.50
2023-03-16T19:42:41.345Z,29.97
2023-03-16T19:45:15.157Z,31.30
2023-03-16T19:47:41.945Z,30.23
2023-03-16T19:50:16.107Z,37.57
2023-03-16T19:52:42.822Z,40.90
2023-03-16T19:55:13.483Z,36.80
2023-03-16T19:57:40.429Z,34.30
2023-03-16T20:00:08.491Z,33.30
2023-03-16T20:02:38.722Z,31.73
2023-03-16T20:05:05.778Z,33.13
2023-03-16T20:07:38.046Z,36.87
2023-03-16T20:10:05.869Z,37.03
2023-03-16T20:12:32.581Z,35.07
2023-03-16T20:14:59.964Z,41.37
2023-03-16T20:17:28.292Z,31.00
2023-03-16T20:19:54.977Z,41.13
2023-03-16T20:22:22.376Z,41.23
2023-03-16T20:24:49.747Z,42.87
2023-03-16T20:27:16.835Z,45.00
2023-03-16T20:29:43.710Z,51.60
2023-03-16T20:32:16.530Z,54.47
2023-03-16T20:34:43.088Z,55.27
2023-03-16T20:37:26.382Z,54.80
2023-03-16T20:39:53.926Z,46.33
2023-03-16T20:42:24.046Z,49.93
2023-03-16T20:44:51.029Z,49.00
2023-03-16T20:47:18.089Z,45.87
2023-03-16T20:49:44.739Z,48.27
2023-03-16T20:52:18.158Z,52.57
2023-03-16T20:54:44.910Z,52.93
2023-03-16T20:57:21.645Z,53.10
2023-03-16T20:59:49.392Z,53.97
2023-03-16T21:02:35.200Z,48.27
2023-03-16T21:05:04.039Z,50.33
2023-03-16T21:07:30.736Z,39.73
2023-03-16T21:09:57.324Z,40.40
2023-03-16T21:12:24.946Z,48.60
2023-03-16T21:14:52.022Z,46.07
2023-03-16T21:17:34.529Z,46.33
2023-03-16T21:20:01.045Z,41.93
2023-03-16T21:22:28.430Z,42.50
2023-03-16T21:24:55.068Z,41.87
2023-03-16T21:27:26.236Z,40.93
2023-03-16T21:29:56.115Z,69.77
2023-03-16T21:32:23.830Z,64.00
2023-03-16T21:34:50.472Z,57.43
2023-03-16T21:37:18.186Z,54.43
2023-03-16T21:39:45.182Z,50.33
2023-03-16T21:42:12.207Z,45.23
2023-03-16T21:44:39.176Z,49.73
2023-03-16T21:47:27.563Z,46.93
2023-03-16T21:49:54.736Z,45.30
2023-03-16T21:52:25.004Z,45.23
2023-03-16T21:54:51.960Z,39.73
2023-03-16T21:57:18.701Z,39.57
2023-03-16T21:59:45.804Z,38.33
2023-03-16T22:02:18.547Z,39.00
2023-03-16T22:04:45.055Z,40.77
2023-03-16T22:07:12.230Z,36.33
2023-03-16T22:09:39.578Z,33.47
2023-03-16T22:12:06.766Z,35.50
2023-03-16T22:14:33.299Z,31.33
2023-03-16T22:16:59.785Z,29.33
2023-03-16T22:19:27.398Z,30.50
2023-03-16T22:21:54.131Z,34.47
2023-03-16T22:24:22.224Z,32.17
2023-03-16T22:26:50.246Z,32.33
2023-03-16T22:29:20.923Z,32.87
2023-03-16T22:31:47.538Z,34.17
2023-03-16T22:34:40.497Z,36.90
2023-03-16T22:37:08.042Z,35.50
2023-03-16T22:39:37.047Z,32.97
2023-03-16T22:42:04.127Z,34.13
2023-03-16T22:44:30.933Z,37.20
2023-03-16T22:46:57.482Z,39.07
2023-03-16T22:49:27.424Z,36.60
2023-03-16T22:51:54.705Z,36.07
2023-03-16T22:54:21.492Z,34.30
2023-03-16T22:56:48.036Z,33.13
2023-03-16T22:59:15.921Z,32.10
2023-03-16T23:01:43.694Z,31.57
2023-03-16T23:04:13.960Z,31.57
2023-03-16T23:06:40.533Z,32.27
2023-03-16T23:09:07.014Z,32.60
2023-03-16T23:11:33.841Z,31.50
2023-03-16T23:14:00.567Z,30.93
2023-03-16T23:16:28.508Z,31.67
2023-03-16T23:18:55.058Z,30.57
2023-03-16T23:21:22.163Z,31.20
2023-03-16T23:24:02.585Z,29.70
2023-03-16T23:26:29.877Z,30.43
2023-03-16T23:28:56.609Z,31.50
2023-03-16T23:31:23.966Z,38.60
2023-03-16T23:33:50.468Z,39.87
2023-03-16T23:36:17.865Z,44.47
2023-03-16T23:38:44.651Z,43.37
2023-03-16T23:41:11.676Z,41.07
2023-03-16T23:43:38.600Z,43.93
2023-03-16T23:46:05.295Z,43.93
2023-03-16T23:48:32.948Z,42.53
2023-03-16T23:50:59.680Z,41.33
2023-03-16T23:53:26.180Z,39.77
2023-03-16T23:55:52.808Z,44.93
2023-03-16T23:58:19.286Z,45.30
